createdAt,value
2017-09-16T00:01:49.216Z,6.10
2017-09-16T00:04:16.760Z,5.07
2017-09-16T00:06:44.259Z,4.70
2017-09-16T00:09:11.794Z,4.63
2017-09-16T00:11:39.310Z,4.60
2017-09-16T00:14:06.819Z,4.07
2017-09-16T00:16:34.316Z,4.73
2017-09-16T00:19:01.828Z,4.53
2017-09-16T00:21:29.318Z,6.17
2017-09-16T00:23:56.844Z,3.27
2017-09-16T00:26:24.357Z,3.83
2017-09-16T00:28:51.851Z,3.77
2017-09-16T00:31:19.354Z,4.17
2017-09-16T00:33:46.868Z,10.43
2017-09-16T00:36:14.388Z,15.23
2017-09-16T00:38:41.896Z,6.40
2017-09-16T00:41:09.431Z,6.70
2017-09-16T00:43:36.943Z,5.10
2017-09-16T00:46:04.482Z,3.30
2017-09-16T00:48:31.988Z,3.00
2017-09-16T00:50:59.485Z,3.20
2017-09-16T00:53:27.050Z,2.50
2017-09-16T00:55:54.554Z,3.63
2017-09-16T00:58:22.066Z,3.30
2017-09-16T01:00:49.622Z,5.37
2017-09-16T01:03:17.122Z,2.70
2017-09-16T01:05:44.624Z,8.50
2017-09-16T01:08:12.136Z,4.03
2017-09-16T01:10:39.658Z,5.47
2017-09-16T01:13:07.151Z,7.50
2017-09-16T01:15:34.664Z,2.43
2017-09-16T01:18:02.156Z,3.07
2017-09-16T01:20:29.656Z,24.93
2017-09-16T01:22:57.168Z,28.67
2017-09-16T01:25:24.669Z,7.80
2017-09-16T01:27:52.179Z,12.73
2017-09-16T01:30:19.783Z,11.83
2017-09-16T01:32:47.350Z,25.33
2017-09-16T01:35:14.857Z,23.10
2017-09-16T01:37:42.360Z,12.80
2017-09-16T01:40:09.873Z,44.37
2017-09-16T01:42:37.400Z,27.23
2017-09-16T01:45:04.913Z,18.90
2017-09-16T01:47:32.427Z,24.83
2017-09-16T01:49:59.934Z,68.57
2017-09-16T01:52:27.461Z,89.93
2017-09-16T01:54:54.963Z,51.20
2017-09-16T01:57:22.480Z,41.67
2017-09-16T01:59:49.983Z,35.40
2017-09-16T02:02:17.504Z,15.70
2017-09-16T02:04:44.994Z,59.07
2017-09-16T02:07:12.500Z,48.53
2017-09-16T02:09:39.999Z,23.73
2017-09-16T02:12:07.510Z,45.87
2017-09-16T02:14:35.019Z,54.17
2017-09-16T02:17:02.539Z,39.17
2017-09-16T02:19:30.061Z,15.60
2017-09-16T02:21:57.576Z,28.90
2017-09-16T02:24:25.112Z,18.30
2017-09-16T02:26:52.627Z,36.37
2017-09-16T02:29:20.141Z,69.03
2017-09-16T02:31:47.699Z,52.40
2017-09-16T02:34:15.186Z,60.10
2017-09-16T02:36:42.694Z,83.50
2017-09-16T02:39:10.236Z,35.03
2017-09-16T02:41:37.745Z,58.43
2017-09-16T02:44:05.256Z,59.43
2017-09-16T02:46:32.798Z,24.53
2017-09-16T02:49:00.308Z,32.33
2017-09-16T02:51:27.810Z,29.03
2017-09-16T02:53:55.332Z,21.00
2017-09-16T02:56:22.827Z,20.63
2017-09-16T02:58:50.397Z,6.70
2017-09-16T03:01:17.902Z,13.13
2017-09-16T03:03:45.399Z,7.90
2017-09-16T03:06:12.903Z,10.63
2017-09-16T03:08:40.412Z,2.70
2017-09-16T03:11:08.745Z,2.70
2017-09-16T03:13:36.254Z,5.43
2017-09-16T03:16:03.762Z,2.50
2017-09-16T03:18:31.250Z,8.83
2017-09-16T03:20:58.758Z,4.80
2017-09-16T03:23:26.289Z,14.87
2017-09-16T03:25:53.822Z,20.13
2017-09-16T03:28:21.350Z,14.50
2017-09-16T03:30:48.875Z,4.27
2017-09-16T03:33:16.382Z,3.40
2017-09-16T03:35:43.898Z,25.93
2017-09-16T03:38:11.413Z,5.40
2017-09-16T03:40:38.926Z,2.40
2017-09-16T03:43:06.435Z,2.70
2017-09-16T03:45:33.930Z,2.50
2017-09-16T03:48:01.448Z,2.10
2017-09-16T03:50:28.951Z,1.87
2017-09-16T03:52:56.456Z,2.97
2017-09-16T03:55:23.961Z,2.73
2017-09-16T03:57:51.469Z,2.20
2017-09-16T04:00:18.967Z,3.43
2017-09-16T04:02:48.359Z,3.27
2017-09-16T04:05:15.880Z,4.10
2017-09-16T04:07:43.434Z,7.13
2017-09-16T04:10:10.942Z,2.20
2017-09-16T04:12:39.506Z,2.90
2017-09-16T04:15:07.028Z,2.57
2017-09-16T04:17:34.536Z,3.40
2017-09-16T04:20:02.033Z,3.90
2017-09-16T04:22:29.529Z,2.77
2017-09-16T04:24:57.037Z,2.03
2017-09-16T04:27:24.553Z,3.13
2017-09-16T04:29:52.614Z,3.60
2017-09-16T04:32:20.161Z,3.13
2017-09-16T04:34:48.468Z,4.40
2017-09-16T04:37:15.958Z,4.20
2017-09-16T04:39:43.485Z,4.27
2017-09-16T04:42:10.997Z,4.23
2017-09-16T04:44:38.495Z,4.60
2017-09-16T04:47:06.008Z,6.47
2017-09-16T04:49:33.520Z,5.10
2017-09-16T04:52:01.046Z,4.30
2017-09-16T04:54:28.619Z,4.90
2017-09-16T04:56:56.129Z,4.50
2017-09-16T04:59:23.627Z,3.80
2017-09-16T05:01:51.135Z,4.60
2017-09-16T05:04:18.646Z,6.80
2017-09-16T05:06:46.155Z,3.13
2017-09-16T05:09:13.650Z,3.60
2017-09-16T05:11:41.157Z,8.00
2017-09-16T05:14:08.677Z,5.43
2017-09-16T05:16:36.187Z,3.40
2017-09-16T05:19:03.702Z,3.63
2017-09-16T05:21:31.213Z,4.00
2017-09-16T05:23:58.716Z,3.20
2017-09-16T05:26:26.202Z,3.70
2017-09-16T05:28:53.719Z,4.97
2017-09-16T05:31:21.251Z,5.33
2017-09-16T05:33:48.767Z,4.73
2017-09-16T05:36:16.262Z,4.20
2017-09-16T05:38:43.759Z,3.73
2017-09-16T05:41:11.284Z,28.67
2017-09-16T05:43:38.780Z,5.90
2017-09-16T05:46:06.283Z,2.97
2017-09-16T05:48:33.782Z,3.67
2017-09-16T05:51:01.287Z,7.80
2017-09-16T05:53:28.796Z,4.00
2017-09-16T05:55:56.327Z,8.77
2017-09-16T05:58:23.832Z,5.63
2017-09-16T06:00:51.335Z,3.03
2017-09-16T06:03:18.898Z,3.07
2017-09-16T06:05:46.396Z,2.33
2017-09-16T06:08:13.963Z,2.90
2017-09-16T06:10:41.464Z,2.70
2017-09-16T06:13:08.972Z,2.20
2017-09-16T06:15:36.479Z,5.57
2017-09-16T06:18:03.991Z,4.77
2017-09-16T06:20:31.499Z,1.93
2017-09-16T06:22:58.992Z,1.77
2017-09-16T06:25:26.557Z,2.00
2017-09-16T06:27:54.059Z,3.20
2017-09-16T06:30:21.603Z,2.53
2017-09-16T06:32:49.111Z,3.13
2017-09-16T06:35:16.635Z,6.70
2017-09-16T06:37:44.159Z,2.67
2017-09-16T06:40:11.681Z,4.10
2017-09-16T06:42:39.199Z,2.20
2017-09-16T06:45:06.723Z,3.07
2017-09-16T06:47:34.240Z,2.50
2017-09-16T06:50:01.741Z,2.47
2017-09-16T06:52:29.290Z,4.17
2017-09-16T06:54:56.843Z,2.83
2017-09-16T06:57:24.352Z,2.53
2017-09-16T06:59:51.866Z,2.17
2017-09-16T07:02:19.374Z,3.03
2017-09-16T07:04:47.045Z,2.83
2017-09-16T07:07:14.544Z,3.93
2017-09-16T07:09:42.058Z,2.80
2017-09-16T07:12:10.399Z,3.67
2017-09-16T07:14:37.918Z,4.70
2017-09-16T07:17:05.435Z,3.40
2017-09-16T07:19:32.958Z,3.57
2017-09-16T07:22:00.498Z,4.97
2017-09-16T07:24:28.028Z,6.90
2017-09-16T07:26:55.541Z,2.57
2017-09-16T07:29:23.045Z,2.60
2017-09-16T07:31:50.560Z,2.57
2017-09-16T07:34:18.080Z,8.93
2017-09-16T07:36:45.606Z,2.83
2017-09-16T07:39:13.131Z,2.90
2017-09-16T07:41:40.656Z,4.07
2017-09-16T07:44:08.186Z,2.23
2017-09-16T07:46:35.691Z,3.43
2017-09-16T07:49:03.211Z,5.10
2017-09-16T07:51:30.719Z,3.10
2017-09-16T07:53:58.211Z,2.80
2017-09-16T07:56:25.751Z,4.23
2017-09-16T07:58:53.263Z,4.37
2017-09-16T08:01:20.764Z,3.83
2017-09-16T08:03:48.310Z,3.80
2017-09-16T08:06:15.839Z,4.40
2017-09-16T08:08:43.365Z,4.77
2017-09-16T08:11:10.998Z,3.47
2017-09-16T08:13:38.516Z,4.50
2017-09-16T08:16:06.042Z,2.63
2017-09-16T08:18:33.573Z,5.13
2017-09-16T08:21:01.095Z,2.23
2017-09-16T08:23:28.623Z,4.13
2017-09-16T08:25:56.128Z,6.50
2017-09-16T08:28:23.643Z,3.43
2017-09-16T08:30:51.155Z,2.70
2017-09-16T08:33:18.667Z,3.87
2017-09-16T08:35:46.183Z,3.63
2017-09-16T08:38:13.696Z,2.77
2017-09-16T08:40:41.213Z,4.77
2017-09-16T08:43:08.711Z,8.60
2017-09-16T08:45:36.259Z,2.23
2017-09-16T08:48:03.790Z,4.17
2017-09-16T08:50:31.293Z,2.63
2017-09-16T08:52:58.807Z,4.33
2017-09-16T08:55:26.320Z,3.43
2017-09-16T08:57:53.829Z,4.80
2017-09-16T09:00:21.353Z,4.27
2017-09-16T09:02:48.892Z,5.90
2017-09-16T09:05:16.393Z,3.27
2017-09-16T09:07:43.901Z,3.70
2017-09-16T09:10:11.403Z,2.70
2017-09-16T09:12:38.972Z,2.50
2017-09-16T09:15:06.504Z,5.57
2017-09-16T09:17:34.014Z,2.80
2017-09-16T09:20:01.536Z,3.50
2017-09-16T09:22:29.045Z,3.70
2017-09-16T09:24:56.559Z,7.00
2017-09-16T09:27:24.079Z,12.10
2017-09-16T09:29:51.603Z,4.20
2017-09-16T09:32:19.119Z,4.87
2017-09-16T09:34:46.624Z,3.63
2017-09-16T09:37:14.141Z,5.47
2017-09-16T09:39:41.635Z,2.80
2017-09-16T09:42:09.161Z,4.43
2017-09-16T09:44:36.675Z,2.90
2017-09-16T09:47:04.188Z,3.80
2017-09-16T09:49:31.690Z,4.43
2017-09-16T09:51:59.203Z,5.70
2017-09-16T09:54:26.702Z,3.40
2017-09-16T09:56:54.210Z,4.10
2017-09-16T09:59:21.708Z,2.40
2017-09-16T10:01:49.224Z,5.73
2017-09-16T10:04:16.775Z,2.70
2017-09-16T10:06:44.274Z,2.60
2017-09-16T10:09:11.805Z,3.67
2017-09-16T10:11:39.310Z,3.73
2017-09-16T10:14:06.814Z,5.07
2017-09-16T10:16:34.341Z,4.03
2017-09-16T10:19:01.844Z,5.63
2017-09-16T10:21:29.395Z,5.43
2017-09-16T10:23:56.929Z,3.10
2017-09-16T10:26:24.457Z,4.87
2017-09-16T10:28:52.031Z,11.13
2017-09-16T10:31:19.542Z,7.93
2017-09-16T10:33:47.043Z,6.53
2017-09-16T10:36:14.542Z,9.50
2017-09-16T10:38:42.048Z,3.03
2017-09-16T10:41:09.560Z,5.47
2017-09-16T10:43:37.067Z,2.77
2017-09-16T10:46:04.709Z,21.57
2017-09-16T10:48:32.222Z,6.73
2017-09-16T10:50:59.743Z,3.47
2017-09-16T10:53:27.252Z,4.70
2017-09-16T10:55:54.818Z,5.13
2017-09-16T10:58:22.408Z,3.13
2017-09-16T11:00:49.979Z,5.63
2017-09-16T11:03:17.498Z,5.03
2017-09-16T11:05:45.071Z,3.17
2017-09-16T11:08:12.607Z,6.40
2017-09-16T11:10:40.136Z,15.07
2017-09-16T11:13:07.650Z,4.13
2017-09-16T11:15:35.201Z,16.30
2017-09-16T11:18:02.836Z,3.97
2017-09-16T11:20:30.350Z,4.80
2017-09-16T11:22:57.908Z,3.00
2017-09-16T11:25:25.410Z,3.40
2017-09-16T11:27:52.961Z,5.23
2017-09-16T11:30:20.489Z,3.70
2017-09-16T11:32:47.988Z,7.40
2017-09-16T11:35:15.501Z,3.13
2017-09-16T11:37:43.127Z,2.23
2017-09-16T11:40:10.643Z,5.50
2017-09-16T11:42:38.174Z,4.43
2017-09-16T11:45:06.671Z,2.33
2017-09-16T11:47:34.175Z,6.00
2017-09-16T11:50:01.716Z,3.27
2017-09-16T11:52:29.244Z,4.47
2017-09-16T11:54:57.084Z,4.87
2017-09-16T11:57:24.599Z,6.40
2017-09-16T11:59:52.125Z,4.00
2017-09-16T12:02:19.631Z,5.70
2017-09-16T12:04:47.148Z,2.90
2017-09-16T12:07:14.668Z,6.23
2017-09-16T12:09:42.231Z,2.47
2017-09-16T12:12:09.774Z,4.43
2017-09-16T12:14:37.294Z,2.07
2017-09-16T12:17:04.845Z,3.73
2017-09-16T12:19:32.372Z,3.40
2017-09-16T12:21:59.870Z,3.10
2017-09-16T12:24:27.407Z,5.40
2017-09-16T12:26:55.043Z,2.90
2017-09-16T12:29:22.710Z,2.93
2017-09-16T12:31:50.239Z,4.10
2017-09-16T12:34:18.018Z,5.43
2017-09-16T12:36:45.571Z,3.97
2017-09-16T12:39:13.077Z,7.07
2017-09-16T12:41:40.589Z,4.17
2017-09-16T12:44:08.279Z,3.93
2017-09-16T12:46:35.907Z,2.90
2017-09-16T12:49:03.576Z,3.93
2017-09-16T12:51:31.319Z,3.27
2017-09-16T12:53:58.839Z,2.57
2017-09-16T12:56:26.362Z,3.93
2017-09-16T12:58:53.877Z,3.00
2017-09-16T13:01:21.405Z,2.40
2017-09-16T13:03:48.911Z,22.37
2017-09-16T13:06:16.419Z,4.80
2017-09-16T13:08:43.952Z,7.00
2017-09-16T13:11:11.479Z,9.50
2017-09-16T13:13:39.158Z,12.20
2017-09-16T13:16:06.707Z,35.63
2017-09-16T13:18:34.228Z,9.63
2017-09-16T13:21:01.739Z,12.13
2017-09-16T13:23:30.120Z,2.00
2017-09-16T13:25:57.892Z,1.07
2017-09-16T13:28:25.962Z,1.90
2017-09-16T13:30:53.480Z,1.80
2017-09-16T13:33:20.999Z,1.30
2017-09-16T13:35:48.728Z,1.03
2017-09-16T13:38:16.748Z,6.87
2017-09-16T13:40:44.289Z,1.23
2017-09-16T13:43:11.809Z,3.73
2017-09-16T13:45:39.326Z,1.40
2017-09-16T13:48:06.844Z,1.30
2017-09-16T13:50:34.350Z,0.70
2017-09-16T13:53:01.854Z,1.00
2017-09-16T13:55:29.604Z,0.70
2017-09-16T13:57:57.120Z,1.20
2017-09-16T14:00:24.636Z,0.70
2017-09-16T14:02:52.305Z,0.50
2017-09-16T14:05:19.859Z,2.30
2017-09-16T14:07:47.388Z,1.03
2017-09-16T14:10:15.167Z,0.90
2017-09-16T14:12:42.956Z,2.93
2017-09-16T14:15:10.479Z,2.13
2017-09-16T14:17:38.000Z,0.80
2017-09-16T14:20:05.516Z,0.77
2017-09-16T14:22:33.020Z,1.23
2017-09-16T14:25:00.560Z,2.27
2017-09-16T14:27:28.980Z,1.37
2017-09-16T14:29:56.963Z,1.03
2017-09-16T14:32:24.494Z,1.50
2017-09-16T14:34:52.312Z,0.90
2017-09-16T14:37:19.957Z,0.93
2017-09-16T14:39:47.475Z,0.80
2017-09-16T14:42:15.046Z,5.80
2017-09-16T14:44:42.671Z,1.40
2017-09-16T14:47:10.210Z,10.67
2017-09-16T14:49:37.740Z,1.23
2017-09-16T14:52:05.402Z,0.80
2017-09-16T14:54:32.961Z,1.70
2017-09-16T14:57:00.465Z,3.23
2017-09-16T14:59:27.975Z,2.73
2017-09-16T15:01:55.511Z,5.20
2017-09-16T15:04:23.208Z,25.83
2017-09-16T15:06:50.741Z,5.30
2017-09-16T15:09:18.268Z,2.30
2017-09-16T15:11:45.768Z,2.57
2017-09-16T15:14:13.590Z,1.23
2017-09-16T15:16:41.612Z,15.87
2017-09-16T15:19:09.203Z,2.43
2017-09-16T15:21:37.026Z,1.37
2017-09-16T15:24:04.547Z,2.83
2017-09-16T15:26:32.352Z,5.40
2017-09-16T15:29:00.020Z,3.23
2017-09-16T15:31:27.530Z,3.03
2017-09-16T15:33:55.044Z,60.37
2017-09-16T15:36:22.551Z,11.30
2017-09-16T15:38:50.448Z,3.20
2017-09-16T15:41:17.977Z,1.70
2017-09-16T15:43:45.784Z,3.07
2017-09-16T15:46:13.562Z,2.93
2017-09-16T15:48:41.461Z,4.60
2017-09-16T15:51:09.420Z,4.33
2017-09-16T15:53:37.238Z,13.47
2017-09-16T15:56:04.962Z,7.73
2017-09-16T15:58:32.776Z,15.00
2017-09-16T16:01:00.630Z,4.80
2017-09-16T16:03:28.580Z,7.17
2017-09-16T16:05:56.102Z,2.23
2017-09-16T16:08:23.641Z,12.43
2017-09-16T16:10:51.411Z,2.80
2017-09-16T16:13:19.347Z,5.13
2017-09-16T16:15:46.882Z,4.27
2017-09-16T16:18:14.394Z,6.60
2017-09-16T16:20:41.943Z,23.90
2017-09-16T16:23:09.787Z,5.57
2017-09-16T16:25:37.879Z,3.20
2017-09-16T16:28:05.392Z,2.53
2017-09-16T16:30:32.942Z,5.83
2017-09-16T16:33:00.459Z,13.00
2017-09-16T16:35:28.002Z,21.70
2017-09-16T16:37:55.555Z,5.27
2017-09-16T16:40:23.172Z,8.73
2017-09-16T16:42:50.691Z,7.33
2017-09-16T16:45:18.200Z,4.13
2017-09-16T16:47:46.090Z,3.10
2017-09-16T16:50:13.797Z,2.33
2017-09-16T16:52:41.783Z,2.90
2017-09-16T16:55:09.322Z,10.90
2017-09-16T16:57:37.258Z,1.93
2017-09-16T17:00:04.792Z,5.27
2017-09-16T17:02:32.467Z,2.70
2017-09-16T17:04:59.996Z,3.47
2017-09-16T17:07:27.520Z,3.20
2017-09-16T17:09:55.457Z,2.90
2017-09-16T17:12:22.969Z,4.20
2017-09-16T17:14:50.787Z,5.90
2017-09-16T17:17:18.574Z,2.63
2017-09-16T17:19:46.103Z,3.00
2017-09-16T17:22:13.971Z,6.90
2017-09-16T17:24:41.479Z,2.00
2017-09-16T17:27:08.995Z,1.50
2017-09-16T17:29:36.523Z,2.13
2017-09-16T17:32:04.035Z,1.83
2017-09-16T17:34:31.684Z,6.63
2017-09-16T17:36:59.623Z,1.83
2017-09-16T17:39:28.617Z,2.40
2017-09-16T17:41:56.135Z,1.57
2017-09-16T17:44:24.360Z,3.20
2017-09-16T17:46:51.887Z,3.80
2017-09-16T17:49:19.403Z,6.30
2017-09-16T17:51:46.899Z,4.40
2017-09-16T17:54:14.691Z,2.97
2017-09-16T17:56:42.606Z,2.87
2017-09-16T17:59:10.168Z,1.90
2017-09-16T18:01:38.084Z,2.87
2017-09-16T18:04:05.954Z,12.33
2017-09-16T18:13:20.136Z,1.93
2017-09-16T18:15:48.113Z,6.23
2017-09-16T18:18:15.977Z,5.63
2017-09-16T18:20:43.478Z,2.30
2017-09-16T18:23:11.656Z,1.93
2017-09-16T18:25:39.169Z,3.23
2017-09-16T18:28:06.699Z,11.80
2017-09-16T18:30:34.712Z,6.53
2017-09-16T18:33:02.820Z,2.43
2017-09-16T18:35:30.334Z,3.30
2017-09-16T18:37:59.330Z,5.67
2017-09-16T18:40:29.218Z,19.30
2017-09-16T18:42:56.733Z,2.90
2017-09-16T18:45:24.360Z,2.07
2017-09-16T18:47:51.911Z,6.63
2017-09-16T18:50:22.116Z,4.37
2017-09-16T18:52:50.403Z,3.70
2017-09-16T18:55:18.905Z,2.13
2017-09-16T18:57:51.828Z,2.57
2017-09-16T19:00:21.404Z,3.60
2017-09-16T19:02:51.014Z,3.03
2017-09-16T19:05:18.547Z,4.33
2017-09-16T19:07:47.451Z,2.00
2017-09-16T19:10:14.984Z,3.33
2017-09-16T19:12:44.139Z,2.00
2017-09-16T19:15:15.861Z,3.77
2017-09-16T19:17:43.384Z,4.27
2017-09-16T19:20:13.097Z,2.40
2017-09-16T19:22:41.078Z,3.47
2017-09-16T19:25:08.607Z,3.30
2017-09-16T19:27:38.001Z,3.20
2017-09-16T19:30:06.223Z,3.80
2017-09-16T19:32:36.148Z,2.57
2017-09-16T19:35:03.955Z,4.00
2017-09-16T19:37:32.099Z,2.87
2017-09-16T19:39:59.628Z,5.60
2017-09-16T19:42:28.639Z,3.37
2017-09-16T19:44:57.416Z,5.83
2017-09-16T19:47:26.824Z,6.93
2017-09-16T19:50:01.670Z,3.50
2017-09-16T19:52:30.265Z,4.63
2017-09-16T19:54:58.735Z,5.20
2017-09-16T19:57:26.267Z,2.80
2017-09-16T19:59:55.640Z,2.90
2017-09-16T20:02:42.692Z,4.30
2017-09-16T20:05:10.245Z,4.07
2017-09-16T20:07:37.747Z,3.70
2017-09-16T20:10:05.849Z,4.87
2017-09-16T20:12:33.372Z,4.33
2017-09-16T20:15:00.918Z,3.67
2017-09-16T20:17:28.949Z,4.00
2017-09-16T20:19:56.446Z,5.13
2017-09-16T20:22:23.978Z,3.73
2017-09-16T20:24:52.476Z,6.00
2017-09-16T20:27:20.000Z,5.43
2017-09-16T20:29:47.527Z,2.83
2017-09-16T20:32:15.748Z,4.40
2017-09-16T20:34:45.192Z,3.87
2017-09-16T20:37:12.719Z,2.30
2017-09-16T20:39:40.224Z,2.83
2017-09-16T20:42:07.746Z,3.30
2017-09-16T20:44:36.695Z,4.30
2017-09-16T20:47:04.199Z,2.83
2017-09-16T20:49:32.645Z,2.30
2017-09-16T20:52:31.876Z,5.37
2017-09-16T20:54:59.419Z,4.47
2017-09-16T20:57:27.359Z,2.10
2017-09-16T21:00:04.332Z,2.90
2017-09-16T21:02:32.320Z,2.10
2017-09-16T21:04:59.831Z,5.13
2017-09-16T21:07:29.433Z,3.80
2017-09-16T21:09:56.928Z,2.77
2017-09-16T21:12:24.427Z,1.93
2017-09-16T21:14:51.948Z,4.73
2017-09-16T21:17:20.087Z,2.00
2017-09-16T21:19:47.604Z,2.10
2017-09-16T21:22:15.536Z,5.90
2017-09-16T21:24:43.046Z,2.47
2017-09-16T21:27:10.974Z,2.57
2017-09-16T21:29:38.473Z,2.10
2017-09-16T21:32:06.369Z,1.90
2017-09-16T21:34:34.146Z,2.60
2017-09-16T21:37:01.644Z,2.50
2017-09-16T21:39:29.399Z,2.90
2017-09-16T21:41:56.933Z,2.80
2017-09-16T21:44:24.818Z,2.40
2017-09-16T21:46:52.360Z,2.67
2017-09-16T21:49:20.144Z,15.67
2017-09-16T21:51:47.644Z,6.43
2017-09-16T21:54:15.143Z,2.37
2017-09-16T21:56:42.902Z,2.27
2017-09-16T21:59:10.410Z,2.53
2017-09-16T22:01:37.950Z,4.97
2017-09-16T22:04:05.440Z,3.40
2017-09-16T22:06:33.060Z,4.57
2017-09-16T22:09:00.561Z,4.97
2017-09-16T22:11:28.104Z,2.70
2017-09-16T22:13:55.667Z,5.53
2017-09-16T22:16:23.169Z,4.63
2017-09-16T22:18:50.684Z,3.13
2017-09-16T22:21:18.191Z,3.03
2017-09-16T22:23:45.701Z,5.13
2017-09-16T22:26:13.203Z,4.33
2017-09-16T22:28:40.698Z,5.80
2017-09-16T22:31:08.200Z,2.93
2017-09-16T22:33:35.715Z,4.57
2017-09-16T22:36:03.245Z,3.10
2017-09-16T22:38:30.755Z,3.40
2017-09-16T22:40:58.261Z,5.80
2017-09-16T22:43:25.818Z,3.80
2017-09-16T22:45:53.377Z,4.20
2017-09-16T22:48:20.896Z,4.00
2017-09-16T22:50:48.402Z,4.10
2017-09-16T22:53:15.931Z,4.00
2017-09-16T22:55:43.438Z,8.53
2017-09-16T22:58:10.942Z,4.27
2017-09-16T23:00:38.440Z,3.67
2017-09-16T23:03:05.934Z,4.63
2017-09-16T23:05:33.432Z,3.63
2017-09-16T23:08:00.938Z,3.57
2017-09-16T23:10:32.082Z,5.50
2017-09-16T23:12:59.626Z,8.93
2017-09-16T23:15:27.127Z,3.70
2017-09-16T23:17:54.659Z,4.40
2017-09-16T23:20:22.275Z,3.73
2017-09-16T23:22:49.772Z,2.50
2017-09-16T23:25:17.267Z,3.07
2017-09-16T23:27:44.763Z,6.00
2017-09-16T23:30:12.267Z,3.63
2017-09-16T23:32:39.759Z,4.00
2017-09-16T23:35:07.249Z,3.80
2017-09-16T23:37:34.768Z,7.20
2017-09-16T23:40:02.263Z,6.57
2017-09-16T23:42:29.759Z,2.97
2017-09-16T23:44:57.264Z,4.13
2017-09-16T23:47:24.776Z,6.20
2017-09-16T23:49:52.280Z,9.13
2017-09-16T23:52:19.774Z,4.70
2017-09-16T23:54:47.275Z,4.70
2017-09-16T23:57:14.781Z,8.70
2017-09-16T23:59:42.285Z,4.30
